Time;durP1;ratioP1;P1;durP2;ratioP2;P2;SDS_P1;SDS_P2;PMS_P1;PMS_P2;Temp;Humidity;BMP_temperature;BMP_pressure;BME280_temperature;BME280_humidity;BME280_pressure;Samples;Min_cycle;Max_cycle;Signal;HPM_P1;HPM_P2
2020/12/30 00:01:41;;;;;;;2.05;0.80;;;;;;;;;;5016216;28;20030;-65
2020/12/30 00:04:07;;;;;;;1.13;0.50;;;;;;;;;;5016221;28;20088;-65
2020/12/30 00:06:33;;;;;;;0.63;0.38;;;;;;;;;;5016344;28;20022;-65
2020/12/30 00:08:59;;;;;;;2.50;0.65;;;;;;;;;;5016099;28;20033;-65
2020/12/30 00:11:25;;;;;;;2.20;0.50;;;;;;;;;;5016117;28;20053;-65
2020/12/30 00:13:52;;;;;;;0.82;0.38;;;;;;;;;;5015954;28;20033;-65
2020/12/30 00:16:18;;;;;;;1.25;0.40;;;;;;;;;;5015911;28;20026;-65
2020/12/30 00:18:44;;;;;;;1.25;0.20;;;;;;;;;;5016020;28;20490;-65
2020/12/30 00:21:10;;;;;;;0.88;0.20;;;;;;;;;;5015979;28;20033;-63
2020/12/30 00:23:37;;;;;;;0.70;0.30;;;;;;;;;;5015831;28;20489;-65
2020/12/30 00:26:03;;;;;;;0.80;0.20;;;;;;;;;;5015950;28;20030;-65
2020/12/30 00:28:30;;;;;;;1.40;0.30;;;;;;;;;;5015951;28;20101;-65
2020/12/30 00:30:56;;;;;;;0.80;0.30;;;;;;;;;;5018290;28;20032;-65
2020/12/30 00:33:22;;;;;;;1.63;0.35;;;;;;;;;;5035562;28;20116;-65
2020/12/30 00:35:48;;;;;;;1.45;0.40;;;;;;;;;;5035373;28;20386;-65
2020/12/30 00:38:14;;;;;;;1.38;0.45;;;;;;;;;;5035040;28;20095;-65
2020/12/30 00:40:40;;;;;;;3.35;0.30;;;;;;;;;;5035426;28;20025;-65
2020/12/30 00:43:07;;;;;;;2.60;0.30;;;;;;;;;;5035038;28;20045;-65
2020/12/30 00:45:33;;;;;;;0.68;0.38;;;;;;;;;;5035392;28;20038;-65
2020/12/30 00:47:59;;;;;;;1.75;0.30;;;;;;;;;;5035315;28;20053;-65
2020/12/30 00:50:25;;;;;;;0.88;0.30;;;;;;;;;;5035080;28;20034;-65
2020/12/30 00:52:51;;;;;;;1.17;0.30;;;;;;;;;;5035013;28;20045;-65
2020/12/30 00:55:17;;;;;;;2.25;0.60;;;;;;;;;;5035589;28;20033;-65
2020/12/30 00:57:44;;;;;;;2.58;0.65;;;;;;;;;;5035285;28;20104;-65
2020/12/30 01:00:10;;;;;;;2.88;1.00;;;;;;;;;;5035126;28;20026;-65
2020/12/30 01:02:36;;;;;;;2.22;0.70;;;;;;;;;;5034841;28;20033;-65
2020/12/30 01:05:02;;;;;;;2.90;0.70;;;;;;;;;;5034606;28;20497;-65
2020/12/30 01:07:28;;;;;;;2.53;0.88;;;;;;;;;;5034726;28;20518;-65
2020/12/30 01:09:54;;;;;;;4.40;1.50;;;;;;;;;;5034689;28;20033;-65
2020/12/30 01:12:21;;;;;;;4.72;2.50;;;;;;;;;;5034679;28;20033;-65
2020/12/30 01:14:47;;;;;;;4.65;1.85;;;;;;;;;;5034559;28;20025;-65
2020/12/30 01:17:13;;;;;;;4.18;1.00;;;;;;;;;;5034052;28;20026;-65
2020/12/30 01:19:39;;;;;;;5.35;1.20;;;;;;;;;;5034770;28;20131;-65
2020/12/30 01:22:06;;;;;;;2.22;1.10;;;;;;;;;;5034382;28;20021;-65
2020/12/30 01:24:32;;;;;;;2.40;1.20;;;;;;;;;;5034156;28;20072;-65
2020/12/30 01:26:58;;;;;;;3.10;1.10;;;;;;;;;;5034640;28;20021;-65
2020/12/30 01:29:24;;;;;;;4.20;1.02;;;;;;;;;;5034365;28;20060;-65
2020/12/30 01:31:50;;;;;;;3.60;1.10;;;;;;;;;;5034297;28;20030;-65
2020/12/30 01:34:17;;;;;;;1.65;0.47;;;;;;;;;;5034357;28;20467;-65
2020/12/30 01:36:43;;;;;;;0.88;0.40;;;;;;;;;;5034168;28;20378;-65
2020/12/30 01:39:09;;;;;;;1.55;0.38;;;;;;;;;;5034496;28;20029;-65
2020/12/30 01:41:35;;;;;;;0.90;0.30;;;;;;;;;;5016763;28;20054;-65
2020/12/30 01:44:01;;;;;;;1.35;0.43;;;;;;;;;;5034145;28;20029;-65
2020/12/30 01:46:34;;;;;;;0.75;0.30;;;;;;;;;;5034162;28;20028;-65
2020/12/30 01:49:01;;;;;;;0.77;0.20;;;;;;;;;;5034109;28;20104;-65
2020/12/30 01:51:27;;;;;;;0.45;0.20;;;;;;;;;;5034160;28;20030;-65
2020/12/30 01:53:54;;;;;;;1.08;0.50;;;;;;;;;;5033828;28;20029;-64
2020/12/30 01:56:22;;;;;;;1.67;0.43;;;;;;;;;;5033893;28;20032;-65
2020/12/30 01:58:48;;;;;;;0.75;0.20;;;;;;;;;;5033901;28;20099;-65
2020/12/30 02:01:15;;;;;;;0.80;0.30;;;;;;;;;;5033687;28;20055;-65
2020/12/30 02:03:43;;;;;;;1.00;0.30;;;;;;;;;;5033795;28;20030;-65
2020/12/30 02:06:09;;;;;;;1.70;0.52;;;;;;;;;;5033762;28;20030;-65
2020/12/30 02:08:35;;;;;;;1.30;0.30;;;;;;;;;;5033943;28;20429;-65
2020/12/30 02:11:01;;;;;;;1.30;0.40;;;;;;;;;;5033652;28;20112;-64
2020/12/30 02:13:28;;;;;;;1.27;0.50;;;;;;;;;;5033585;28;20068;-65
2020/12/30 02:15:54;;;;;;;0.75;0.47;;;;;;;;;;5033549;28;20026;-65
2020/12/30 02:18:20;;;;;;;0.55;0.30;;;;;;;;;;5033515;28;20026;-65
2020/12/30 02:20:46;;;;;;;1.05;0.40;;;;;;;;;;5033432;28;20025;-65
2020/12/30 02:23:13;;;;;;;0.98;0.30;;;;;;;;;;5033672;28;20048;-65
2020/12/30 02:25:39;;;;;;;1.08;0.30;;;;;;;;;;5033170;28;20041;-65
2020/12/30 02:28:05;;;;;;;1.88;0.30;;;;;;;;;;5032555;28;20144;-66
2020/12/30 02:30:31;;;;;;;2.58;0.52;;;;;;;;;;5033332;28;20159;-65
2020/12/30 02:32:57;;;;;;;1.15;0.40;;;;;;;;;;5033362;28;20026;-66
2020/12/30 02:35:24;;;;;;;1.15;0.40;;;;;;;;;;5033265;28;20074;-66
2020/12/30 02:37:51;;;;;;;1.20;0.50;;;;;;;;;;5033195;28;20156;-65
2020/12/30 02:40:17;;;;;;;1.27;0.43;;;;;;;;;;5033308;28;20025;-65
2020/12/30 02:42:43;;;;;;;0.95;0.50;;;;;;;;;;5033219;28;20167;-66
2020/12/30 02:45:10;;;;;;;1.35;0.40;;;;;;;;;;5033231;28;20087;-65
2020/12/30 02:47:36;;;;;;;1.38;0.60;;;;;;;;;;5033218;28;20032;-66
2020/12/30 02:50:05;;;;;;;1.10;0.40;;;;;;;;;;5032919;28;20052;-66
2020/12/30 02:52:31;;;;;;;0.80;0.43;;;;;;;;;;5033037;28;20030;-65
2020/12/30 02:54:57;;;;;;;1.15;0.60;;;;;;;;;;5033055;28;20030;-65
2020/12/30 02:57:23;;;;;;;3.83;0.90;;;;;;;;;;5033034;28;20018;-65
2020/12/30 02:59:55;;;;;;;2.22;0.70;;;;;;;;;;5033093;28;20033;-65
2020/12/30 03:02:23;;;;;;;1.48;0.70;;;;;;;;;;5033103;28;20017;-66
2020/12/30 03:04:49;;;;;;;1.40;0.77;;;;;;;;;;5032978;28;20474;-65
2020/12/30 03:07:15;;;;;;;4.38;1.98;;;;;;;;;;5032922;28;20025;-65
2020/12/30 03:09:41;;;;;;;3.47;1.63;;;;;;;;;;5032967;28;20026;-65
2020/12/30 03:12:07;;;;;;;1.55;0.70;;;;;;;;;;5032912;28;20021;-64
2020/12/30 03:14:33;;;;;;;1.25;0.60;;;;;;;;;;5032877;28;20028;-65
2020/12/30 03:17:00;;;;;;;1.85;0.85;;;;;;;;;;5032803;28;20080;-65
2020/12/30 03:19:26;;;;;;;2.60;0.70;;;;;;;;;;5032759;28;20026;-65
2020/12/30 03:21:52;;;;;;;1.80;0.50;;;;;;;;;;5032832;28;20031;-66
2020/12/30 03:24:19;;;;;;;2.63;0.65;;;;;;;;;;5032634;28;20041;-65
2020/12/30 03:26:45;;;;;;;2.63;0.52;;;;;;;;;;5032939;28;20026;-66
2020/12/30 03:29:11;;;;;;;1.48;0.50;;;;;;;;;;5032867;28;20498;-66
2020/12/30 03:31:38;;;;;;;1.23;0.55;;;;;;;;;;5032711;28;20429;-66
2020/12/30 03:34:04;;;;;;;4.00;0.75;;;;;;;;;;5032944;28;20378;-66
2020/12/30 03:36:30;;;;;;;1.73;1.00;;;;;;;;;;5032552;28;20163;-66
2020/12/30 03:38:56;;;;;;;2.35;1.60;;;;;;;;;;5032670;28;20036;-66
2020/12/30 03:41:22;;;;;;;3.20;1.42;;;;;;;;;;5036059;28;20029;-66
2020/12/30 03:43:49;;;;;;;3.58;1.20;;;;;;;;;;5036508;28;20092;-65
2020/12/30 03:46:15;;;;;;;3.08;1.65;;;;;;;;;;5036276;28;20022;-65
2020/12/30 03:48:41;;;;;;;2.85;1.48;;;;;;;;;;5036266;28;20033;-65
2020/12/30 03:51:07;;;;;;;3.15;1.80;;;;;;;;;;5036131;28;20072;-65
2020/12/30 03:53:33;;;;;;;3.60;2.13;;;;;;;;;;5036449;28;20455;-66
2020/12/30 03:55:59;;;;;;;3.00;2.00;;;;;;;;;;5036163;28;20022;-65
2020/12/30 03:58:26;;;;;;;9.15;2.25;;;;;;;;;;5036064;28;20053;-66
2020/12/30 04:00:52;;;;;;;2.97;2.10;;;;;;;;;;5036142;28;20075;-62
2020/12/30 04:03:18;;;;;;;3.20;2.38;;;;;;;;;;5035860;28;20035;-66
2020/12/30 04:05:44;;;;;;;3.80;2.60;;;;;;;;;;5036189;28;20029;-65
2020/12/30 04:08:10;;;;;;;4.25;1.88;;;;;;;;;;5035907;28;20053;-66
2020/12/30 04:10:36;;;;;;;1.48;0.40;;;;;;;;;;5036155;28;20033;-66
2020/12/30 04:13:02;;;;;;;0.82;0.20;;;;;;;;;;5035959;28;20112;-66
2020/12/30 04:15:29;;;;;;;0.77;0.28;;;;;;;;;;5035746;28;20021;-66
2020/12/30 04:17:55;;;;;;;1.17;0.43;;;;;;;;;;5035685;28;20486;-66
2020/12/30 04:20:21;;;;;;;0.85;0.40;;;;;;;;;;5036038;28;20040;-66
2020/12/30 04:22:47;;;;;;;5.93;4.93;;;;;;;;;;5035659;28;20163;-66
2020/12/30 04:25:13;;;;;;;2.65;0.88;;;;;;;;;;5035525;28;20044;-66
2020/12/30 04:27:39;;;;;;;1.45;0.50;;;;;;;;;;5035513;28;20048;-66
2020/12/30 04:30:06;;;;;;;3.22;0.40;;;;;;;;;;5035570;28;20029;-66
2020/12/30 04:32:32;;;;;;;2.17;0.50;;;;;;;;;;5035549;28;20482;-66
2020/12/30 04:34:58;;;;;;;3.17;0.60;;;;;;;;;;5035392;28;20056;-66
2020/12/30 04:37:24;;;;;;;11.57;8.85;;;;;;;;;;5035310;28;20029;-67
2020/12/30 04:39:50;;;;;;;8.60;4.28;;;;;;;;;;5035574;28;20030;-67
2020/12/30 04:42:20;;;;;;;3.65;0.80;;;;;;;;;;5035122;28;20177;-67
2020/12/30 04:44:49;;;;;;;2.80;1.00;;;;;;;;;;5035407;28;20120;-66
2020/12/30 04:47:15;;;;;;;1.70;1.00;;;;;;;;;;5035012;28;20044;-66
2020/12/30 04:49:42;;;;;;;2.08;1.05;;;;;;;;;;5035033;28;20025;-66
2020/12/30 04:52:10;;;;;;;4.60;1.27;;;;;;;;;;5034075;28;20121;-66
2020/12/30 04:54:37;;;;;;;8.73;1.30;;;;;;;;;;5035481;28;20025;-67
2020/12/30 04:57:04;;;;;;;2.97;1.60;;;;;;;;;;5034910;28;20018;-65
2020/12/30 04:59:32;;;;;;;3.60;1.50;;;;;;;;;;5035172;28;20029;-65
2020/12/30 05:01:58;;;;;;;2.05;1.40;;;;;;;;;;5035143;28;20022;-66
2020/12/30 05:04:25;;;;;;;2.35;1.20;;;;;;;;;;5034721;28;20505;-66
2020/12/30 05:06:51;;;;;;;5.50;1.80;;;;;;;;;;5034851;28;20040;-66
2020/12/30 05:09:21;;;;;;;2.90;1.60;;;;;;;;;;5034825;28;20124;-66
2020/12/30 05:11:48;;;;;;;4.20;1.80;;;;;;;;;;5034783;28;20029;-66
2020/12/30 05:14:14;;;;;;;5.05;2.05;;;;;;;;;;5034620;28;20025;-66
2020/12/30 05:16:40;;;;;;;4.22;1.88;;;;;;;;;;5034635;28;20025;-66
2020/12/30 05:19:06;;;;;;;3.88;1.77;;;;;;;;;;5034692;28;20100;-65
2020/12/30 05:21:32;;;;;;;3.15;2.00;;;;;;;;;;5034383;28;20022;-66
2020/12/30 05:23:59;;;;;;;4.60;2.15;;;;;;;;;;5034219;28;20040;-66
2020/12/30 05:26:25;;;;;;;6.88;1.90;;;;;;;;;;5034751;28;20037;-66
2020/12/30 05:28:53;;;;;;;3.35;2.30;;;;;;;;;;5034540;28;20025;-66
2020/12/30 05:31:19;;;;;;;3.95;1.98;;;;;;;;;;5034248;28;20037;-65
2020/12/30 05:33:46;;;;;;;3.22;2.10;;;;;;;;;;5034529;28;20375;-66
2020/12/30 05:36:14;;;;;;;4.07;2.30;;;;;;;;;;5033874;28;20509;-66
2020/12/30 05:38:41;;;;;;;2.90;2.00;;;;;;;;;;5033321;28;20390;-65
2020/12/30 05:41:27;;;;;;;3.63;2.10;;;;;;;;;;5034205;28;20025;-66
2020/12/30 05:43:53;;;;;;;4.28;1.90;;;;;;;;;;5034044;28;20048;-65
2020/12/30 05:46:26;;;;;;;5.63;2.95;;;;;;;;;;5033926;28;20034;-65
2020/12/30 05:48:53;;;;;;;7.03;3.10;;;;;;;;;;5033833;28;20036;-65
2020/12/30 05:51:26;;;;;;;9.65;3.30;;;;;;;;;;5034198;28;20036;-65
2020/12/30 05:54:08;;;;;;;7.35;3.70;;;;;;;;;;5034004;28;20025;-66
2020/12/30 05:56:36;;;;;;;8.27;3.85;;;;;;;;;;5033963;28;20048;-65
2020/12/30 05:59:03;;;;;;;5.93;2.17;;;;;;;;;;5033817;28;20021;-65
2020/12/30 06:01:29;;;;;;;8.07;2.92;;;;;;;;;;5033716;28;20032;-66
2020/12/30 06:03:56;;;;;;;12.98;9.70;;;;;;;;;;5033519;28;20104;-65
2020/12/30 06:06:22;;;;;;;11.48;8.75;;;;;;;;;;5033956;28;20033;-66
2020/12/30 06:08:49;;;;;;;21.77;17.10;;;;;;;;;;5033502;28;20419;-65
2020/12/30 06:11:25;;;;;;;19.50;15.32;;;;;;;;;;5033666;28;20033;-65
2020/12/30 06:13:53;;;;;;;8.57;6.15;;;;;;;;;;5033504;28;20497;-65
2020/12/30 06:16:23;;;;;;;9.10;4.47;;;;;;;;;;5033426;28;20028;-65
2020/12/30 06:18:52;;;;;;;4.57;2.65;;;;;;;;;;5033357;28;20438;-65
2020/12/30 06:21:20;;;;;;;3.83;2.17;;;;;;;;;;5033366;28;20025;-65
2020/12/30 06:23:51;;;;;;;3.53;1.83;;;;;;;;;;5033188;28;20013;-66
2020/12/30 06:26:18;;;;;;;4.45;2.60;;;;;;;;;;5033427;28;20175;-65
2020/12/30 06:28:49;;;;;;;6.47;2.80;;;;;;;;;;5033258;28;20100;-65
2020/12/30 06:31:16;;;;;;;4.88;3.10;;;;;;;;;;5033598;28;20116;-66
2020/12/30 06:33:42;;;;;;;7.57;3.28;;;;;;;;;;5033224;28;20043;-65
2020/12/30 06:36:08;;;;;;;4.68;3.50;;;;;;;;;;5033234;28;20030;-65
2020/12/30 06:38:34;;;;;;;6.60;3.72;;;;;;;;;;5033111;28;20040;-65
2020/12/30 06:41:08;;;;;;;5.18;3.38;;;;;;;;;;5033320;28;20048;-66
2020/12/30 06:43:48;;;;;;;7.43;3.72;;;;;;;;;;5033089;28;20041;-65
2020/12/30 06:46:20;;;;;;;9.18;3.70;;;;;;;;;;5033187;28;20498;-66
2020/12/30 06:48:57;;;;;;;9.90;3.95;;;;;;;;;;5033094;28;20025;-65
2020/12/30 06:51:24;;;;;;;6.50;3.33;;;;;;;;;;5033446;28;20056;-66
2020/12/30 06:53:53;;;;;;;8.05;3.50;;;;;;;;;;5033290;28;20029;-65
2020/12/30 06:56:35;;;;;;;5.78;3.22;;;;;;;;;;5033289;28;20426;-65
2020/12/30 06:59:02;;;;;;;6.47;3.33;;;;;;;;;;5015063;28;20022;-66
2020/12/30 07:01:28;;;;;;;6.95;4.07;;;;;;;;;;5033021;28;20064;-64
2020/12/30 07:04:06;;;;;;;4.30;2.53;;;;;;;;;;5032944;28;20080;-65
2020/12/30 07:06:35;;;;;;;4.40;2.25;;;;;;;;;;5033309;28;20025;-67
2020/12/30 07:09:07;;;;;;;6.38;2.83;;;;;;;;;;5032917;28;20036;-66
2020/12/30 07:11:50;;;;;;;6.20;3.50;;;;;;;;;;5032547;28;20036;-67
2020/12/30 07:14:23;;;;;;;5.93;3.35;;;;;;;;;;5014386;28;20045;-67
2020/12/30 07:16:50;;;;;;;7.53;3.60;;;;;;;;;;5035966;28;20021;-66
2020/12/30 07:19:21;;;;;;;7.32;3.75;;;;;;;;;;5036339;28;20018;-67
2020/12/30 07:21:53;;;;;;;4.50;2.65;;;;;;;;;;5035109;28;20112;-67
2020/12/30 07:24:23;;;;;;;5.55;2.88;;;;;;;;;;5034810;28;20498;-68
2020/12/30 07:26:50;;;;;;;5.93;3.10;;;;;;;;;;5036249;28;20040;-67
2020/12/30 07:29:17;;;;;;;4.50;2.58;;;;;;;;;;5035234;28;20366;-66
2020/12/30 07:31:46;;;;;;;4.82;3.38;;;;;;;;;;5036464;28;20040;-69
2020/12/30 07:34:22;;;;;;;6.13;3.13;;;;;;;;;;5036156;28;20036;-70
2020/12/30 07:36:48;;;;;;;8.73;3.60;;;;;;;;;;5036412;28;20029;-70
2020/12/30 07:39:15;;;;;;;4.38;3.03;;;;;;;;;;5018739;28;20025;-68
2020/12/30 07:41:46;;;;;;;4.75;3.20;;;;;;;;;;5018534;28;20044;-70
2020/12/30 07:44:12;;;;;;;7.43;3.42;;;;;;;;;;5036506;28;20065;-71
2020/12/30 07:46:38;;;;;;;5.00;3.30;;;;;;;;;;5036203;28;20025;-66
2020/12/30 07:49:31;;;;;;;4.90;2.90;;;;;;;;;;5036189;28;20453;-66
2020/12/30 07:51:58;;;;;;;8.18;3.38;;;;;;;;;;5030615;28;20076;-66
2020/12/30 07:54:25;;;;;;;10.90;4.82;;;;;;;;;;5017672;28;20067;-66
2020/12/30 07:56:52;;;;;;;9.65;5.93;;;;;;;;;;5035906;28;20030;-66
2020/12/30 07:59:22;;;;;;;7.60;5.00;;;;;;;;;;5035877;28;20022;-66
2020/12/30 08:02:24;;;;;;;12.77;7.20;;;;;;;;;;5035603;28;20537;-65
2020/12/30 08:04:50;;;;;;;;;;;;;;;;;;4936991;29;20040;-65
2020/12/30 08:07:16;;;;;;;14.65;7.75;;;;;;;;;;5011936;28;19913;-66
2020/12/30 08:09:43;;;;;;;21.65;9.85;;;;;;;;;;5035807;28;20156;-68
2020/12/30 08:12:11;;;;;;;18.20;11.50;;;;;;;;;;5035481;28;20025;-68
2020/12/30 08:14:40;;;;;;;14.18;8.80;;;;;;;;;;5035616;28;20060;-67
2020/12/30 08:17:08;;;;;;;12.95;7.18;;;;;;;;;;5035776;28;20026;-67
2020/12/30 08:19:37;;;;;;;11.75;6.40;;;;;;;;;;5035933;28;20028;-67
2020/12/30 08:22:10;;;;;;;9.55;6.32;;;;;;;;;;5035840;28;20029;-67
2020/12/30 08:24:41;;;;;;;11.75;5.82;;;;;;;;;;5017752;28;20037;-65
2020/12/30 08:27:07;;;;;;;6.85;5.20;;;;;;;;;;5034415;28;20037;-66
2020/12/30 08:29:35;;;;;;;9.00;5.80;;;;;;;;;;5035512;28;20076;-65
2020/12/30 08:32:07;;;;;;;10.35;6.38;;;;;;;;;;5035380;28;20038;-66
2020/12/30 08:34:37;;;;;;;11.40;5.95;;;;;;;;;;5035503;28;20025;-66
2020/12/30 08:37:11;;;;;;;16.20;11.00;;;;;;;;;;5035163;28;20018;-66
2020/12/30 08:39:41;;;;;;;10.85;6.72;;;;;;;;;;5035212;28;20116;-67
2020/12/30 08:42:11;;;;;;;6.95;4.32;;;;;;;;;;5035233;28;20133;-65
2020/12/30 08:44:43;;;;;;;15.77;10.05;;;;;;;;;;5035283;28;20069;-67
2020/12/30 08:47:12;;;;;;;10.82;7.13;;;;;;;;;;5035081;28;20021;-67
2020/12/30 08:49:40;;;;;;;14.15;10.05;;;;;;;;;;5035250;28;20100;-67
2020/12/30 08:52:20;;;;;;;10.32;6.20;;;;;;;;;;5034743;28;20022;-66
2020/12/30 08:54:46;;;;;;;9.20;6.45;;;;;;;;;;5034847;28;20055;-67
2020/12/30 08:57:19;;;;;;;9.80;8.05;;;;;;;;;;5035094;28;20071;-67
2020/12/30 08:59:45;;;;;;;8.80;5.75;;;;;;;;;;5035010;28;20030;-67
2020/12/30 09:02:14;;;;;;;13.68;8.95;;;;;;;;;;5035003;28;20041;-67
2020/12/30 09:04:53;;;;;;;9.07;3.97;;;;;;;;;;5034971;28;20037;-67
2020/12/30 09:07:26;;;;;;;11.45;7.30;;;;;;;;;;5034903;28;20425;-67
2020/12/30 09:10:05;;;;;;;10.10;5.00;;;;;;;;;;5034706;28;20363;-67
2020/12/30 09:12:32;;;;;;;5.95;4.10;;;;;;;;;;5034671;28;20466;-66
2020/12/30 09:14:58;;;;;;;6.68;3.17;;;;;;;;;;5034476;28;20025;-67
2020/12/30 09:17:24;;;;;;;12.07;6.18;;;;;;;;;;5034365;28;20034;-68
2020/12/30 09:19:51;;;;;;;19.83;9.18;;;;;;;;;;5034558;28;20040;-67
2020/12/30 09:22:17;;;;;;;15.73;9.48;;;;;;;;;;5034591;28;20025;-68
2020/12/30 09:24:44;;;;;;;9.57;5.65;;;;;;;;;;5034127;28;20123;-68
2020/12/30 09:27:20;;;;;;;8.52;3.90;;;;;;;;;;5034303;28;20026;-69
2020/12/30 09:30:05;;;;;;;7.28;4.35;;;;;;;;;;5034387;28;20083;-68
2020/12/30 09:32:31;;;;;;;9.27;4.43;;;;;;;;;;5034350;28;20040;-69
2020/12/30 09:35:01;;;;;;;8.70;3.80;;;;;;;;;;5034367;28;20091;-69
2020/12/30 09:37:27;;;;;;;9.23;3.60;;;;;;;;;;5033734;28;20021;-67
2020/12/30 09:40:10;;;;;;;6.07;3.60;;;;;;;;;;5034002;28;20056;-68
2020/12/30 09:42:36;;;;;;;24.30;3.58;;;;;;;;;;5033913;28;20088;-76
2020/12/30 09:45:07;;;;;;;14.65;3.63;;;;;;;;;;5034306;28;20061;-75
2020/12/30 09:47:34;;;;;;;5.55;2.03;;;;;;;;;;5034318;28;20087;-75
2020/12/30 09:50:00;;;;;;;7.63;5.57;;;;;;;;;;5033825;28;20176;-75
2020/12/30 09:52:26;;;;;;;4.00;2.58;;;;;;;;;;5033106;28;20041;-74
2020/12/30 09:54:53;;;;;;;5.57;2.63;;;;;;;;;;5033605;28;20504;-74
2020/12/30 09:57:19;;;;;;;7.88;3.63;;;;;;;;;;5034058;28;20443;-74
2020/12/30 09:59:45;;;;;;;7.95;4.63;;;;;;;;;;5033497;28;20044;-75
2020/12/30 10:02:11;;;;;;;8.80;4.75;;;;;;;;;;5032315;28;20029;-74
2020/12/30 10:04:39;;;;;;;7.07;4.50;;;;;;;;;;5033372;28;20543;-74
2020/12/30 10:07:05;;;;;;;8.20;5.28;;;;;;;;;;5033837;28;20021;-74
2020/12/30 10:09:31;;;;;;;8.80;5.00;;;;;;;;;;5033820;28;20037;-75
2020/12/30 10:11:57;;;;;;;9.00;4.95;;;;;;;;;;5033103;28;20402;-75
2020/12/30 10:14:23;;;;;;;8.90;4.65;;;;;;;;;;5033730;28;20393;-71
2020/12/30 10:16:49;;;;;;;13.75;6.85;;;;;;;;;;5033463;28;20470;-70
2020/12/30 10:19:16;;;;;;;16.23;7.75;;;;;;;;;;5033756;28;20075;-72
2020/12/30 10:21:42;;;;;;;16.25;8.18;;;;;;;;;;5033400;28;20053;-73
2020/12/30 10:24:09;;;;;;;12.52;7.53;;;;;;;;;;5033261;28;20084;-73
2020/12/30 10:26:36;;;;;;;13.95;8.75;;;;;;;;;;5015745;28;20052;-72
2020/12/30 10:29:02;;;;;;;15.18;9.18;;;;;;;;;;5032574;28;20028;-73
2020/12/30 10:31:28;;;;;;;18.13;8.88;;;;;;;;;;5015281;28;20029;-73
2020/12/30 10:33:55;;;;;;;14.32;9.35;;;;;;;;;;5031789;28;20100;-73
2020/12/30 10:36:22;;;;;;;13.57;9.80;;;;;;;;;;5032748;28;20041;-73
2020/12/30 10:38:48;;;;;;;14.57;8.30;;;;;;;;;;5032265;28;20080;-73
2020/12/30 10:41:18;;;;;;;13.77;9.50;;;;;;;;;;5032802;28;20022;-72
2020/12/30 10:43:44;;;;;;;13.20;7.47;;;;;;;;;;5033171;28;20034;-74
2020/12/30 10:46:17;;;;;;;16.50;9.70;;;;;;;;;;5033281;28;20091;-72
2020/12/30 10:48:46;;;;;;;12.52;7.15;;;;;;;;;;5032428;28;20069;-74
2020/12/30 10:51:16;;;;;;;9.85;5.97;;;;;;;;;;5033085;28;20141;-73
2020/12/30 10:53:42;;;;;;;6.43;3.97;;;;;;;;;;5033117;28;20128;-72
2020/12/30 10:56:09;;;;;;;6.28;4.40;;;;;;;;;;5032942;28;20033;-72
2020/12/30 10:58:35;;;;;;;9.63;4.68;;;;;;;;;;5032206;28;20076;-72
2020/12/30 11:01:02;;;;;;;9.48;6.57;;;;;;;;;;5033169;28;20069;-72
2020/12/30 11:03:28;;;;;;;10.25;6.80;;;;;;;;;;5033233;28;20022;-73
2020/12/30 11:05:58;;;;;;;9.98;6.35;;;;;;;;;;5032718;28;20487;-72
2020/12/30 11:08:24;;;;;;;11.68;6.47;;;;;;;;;;5032234;28;20040;-73
2020/12/30 11:10:50;;;;;;;8.80;5.40;;;;;;;;;;5032570;28;20102;-72
2020/12/30 11:13:16;;;;;;;13.25;6.88;;;;;;;;;;5032876;28;20028;-72
2020/12/30 11:15:43;;;;;;;8.13;5.03;;;;;;;;;;5032866;28;20029;-72
2020/12/30 11:18:09;;;;;;;7.72;5.40;;;;;;;;;;5032762;28;20032;-72
2020/12/30 11:20:35;;;;;;;7.35;5.10;;;;;;;;;;5032653;28;20152;-71
2020/12/30 11:23:01;;;;;;;7.38;4.88;;;;;;;;;;5032695;28;20029;-72
2020/12/30 11:25:27;;;;;;;11.00;5.43;;;;;;;;;;5032565;28;20033;-71
2020/12/30 11:27:53;;;;;;;7.18;4.50;;;;;;;;;;5032586;28;20026;-71
2020/12/30 11:30:20;;;;;;;6.43;4.22;;;;;;;;;;5032637;28;20034;-70
2020/12/30 11:32:46;;;;;;;5.38;3.30;;;;;;;;;;5032628;28;20045;-71
2020/12/30 11:35:13;;;;;;;9.18;4.70;;;;;;;;;;5032717;28;20413;-71
2020/12/30 11:37:39;;;;;;;6.82;4.45;;;;;;;;;;5032767;28;20026;-71
2020/12/30 11:40:06;;;;;;;8.00;5.40;;;;;;;;;;5032679;28;20120;-70
2020/12/30 11:42:32;;;;;;;7.10;4.40;;;;;;;;;;5032413;28;20049;-71
2020/12/30 11:44:58;;;;;;;11.55;4.45;;;;;;;;;;5032427;28;20109;-71
2020/12/30 11:47:25;;;;;;;9.15;4.25;;;;;;;;;;5032551;28;20060;-71
2020/12/30 11:49:51;;;;;;;6.72;4.00;;;;;;;;;;5031861;28;20498;-71
2020/12/30 11:52:17;;;;;;;8.02;4.10;;;;;;;;;;5031719;28;20029;-71
2020/12/30 11:54:44;;;;;;;6.45;3.25;;;;;;;;;;5031852;28;20029;-71
2020/12/30 11:57:10;;;;;;;14.70;5.78;;;;;;;;;;5031285;28;20032;-71
2020/12/30 11:59:36;;;;;;;6.38;3.47;;;;;;;;;;5028590;28;20117;-71
2020/12/30 12:02:02;;;;;;;6.28;3.95;;;;;;;;;;5034767;28;20041;-71
2020/12/30 12:04:28;;;;;;;22.25;4.30;;;;;;;;;;5034830;28;20041;-71
2020/12/30 12:06:58;;;;;;;14.35;4.35;;;;;;;;;;5035588;28;20013;-71
2020/12/30 12:09:24;;;;;;;8.02;3.47;;;;;;;;;;5034993;28;20524;-71
2020/12/30 12:11:51;;;;;;;23.67;4.28;;;;;;;;;;5017971;28;20052;-71
2020/12/30 12:14:17;;;;;;;10.13;3.13;;;;;;;;;;5034563;28;20474;-71
2020/12/30 12:16:49;;;;;;;9.55;1.70;;;;;;;;;;5035132;28;20037;-70
2020/12/30 12:19:15;;;;;;;4.88;1.80;;;;;;;;;;5035481;28;20375;-68
2020/12/30 12:21:41;;;;;;;5.07;2.42;;;;;;;;;;5035815;28;20034;-70
2020/12/30 12:24:08;;;;;;;9.82;6.30;;;;;;;;;;5034570;28;20034;-71
2020/12/30 12:26:34;;;;;;;3.38;2.25;;;;;;;;;;5035501;28;20041;-70
2020/12/30 12:29:01;;;;;;;2.80;1.70;;;;;;;;;;5035223;28;20075;-70
2020/12/30 12:31:27;;;;;;;2.00;1.20;;;;;;;;;;5034364;28;20513;-70
2020/12/30 12:33:53;;;;;;;3.42;1.80;;;;;;;;;;5034637;28;20021;-71
2020/12/30 12:36:20;;;;;;;1.92;1.20;;;;;;;;;;5034329;28;20021;-70
2020/12/30 12:38:46;;;;;;;3.67;1.30;;;;;;;;;;5033301;28;20033;-72
2020/12/30 12:41:16;;;;;;;3.90;1.08;;;;;;;;;;5034893;28;20028;-71
2020/12/30 12:43:42;;;;;;;1.58;0.70;;;;;;;;;;5033951;28;20107;-72
2020/12/30 12:46:13;;;;;;;3.70;1.58;;;;;;;;;;5034785;28;20041;-72
2020/12/30 12:48:39;;;;;;;3.67;1.83;;;;;;;;;;5034999;28;20052;-73
2020/12/30 12:51:05;;;;;;;5.70;2.47;;;;;;;;;;5035059;28;20026;-73
2020/12/30 12:53:31;;;;;;;6.63;3.60;;;;;;;;;;5034628;28;20520;-73
2020/12/30 12:55:57;;;;;;;6.82;3.67;;;;;;;;;;5034784;28;20030;-72
2020/12/30 12:58:24;;;;;;;5.97;3.47;;;;;;;;;;5033882;28;20079;-70
2020/12/30 13:00:50;;;;;;;7.13;4.50;;;;;;;;;;5032138;28;20025;-71
2020/12/30 13:03:16;;;;;;;6.32;3.30;;;;;;;;;;5034092;28;20064;-71
2020/12/30 13:05:45;;;;;;;8.82;3.47;;;;;;;;;;5031096;28;20053;-71
2020/12/30 13:08:11;;;;;;;12.13;4.32;;;;;;;;;;5040855;28;20117;-71
2020/12/30 13:10:38;;;;;;;10.15;4.50;;;;;;;;;;5034023;28;20071;-71
2020/12/30 13:13:04;;;;;;;5.18;3.75;;;;;;;;;;5033809;28;20117;-71
2020/12/30 13:15:30;;;;;;;8.27;3.50;;;;;;;;;;5033998;28;20055;-71
2020/12/30 13:17:56;;;;;;;7.03;4.30;;;;;;;;;;5034643;28;20409;-71
2020/12/30 13:20:23;;;;;;;6.60;3.67;;;;;;;;;;5016216;28;20071;-71
2020/12/30 13:22:49;;;;;;;13.40;3.33;;;;;;;;;;5033247;28;20036;-71
2020/12/30 13:25:15;;;;;;;6.57;3.47;;;;;;;;;;5033290;28;20029;-69
2020/12/30 13:27:41;;;;;;;5.97;3.38;;;;;;;;;;5034118;28;20033;-71
2020/12/30 13:30:07;;;;;;;4.53;3.15;;;;;;;;;;5029979;28;20025;-71
2020/12/30 13:32:33;;;;;;;6.40;3.85;;;;;;;;;;5032940;28;20129;-71
2020/12/30 13:34:59;;;;;;;10.45;5.25;;;;;;;;;;5034383;28;20478;-71
2020/12/30 13:37:26;;;;;;;7.63;4.40;;;;;;;;;;5034439;28;20374;-71
2020/12/30 13:39:52;;;;;;;6.90;4.50;;;;;;;;;;5034128;28;20117;-71
2020/12/30 13:42:18;;;;;;;7.90;5.07;;;;;;;;;;5033638;28;20049;-71
2020/12/30 13:44:44;;;;;;;15.25;4.35;;;;;;;;;;5034075;28;20071;-71
2020/12/30 13:47:10;;;;;;;6.28;3.40;;;;;;;;;;5033906;28;20079;-72
2020/12/30 13:49:36;;;;;;;5.72;3.75;;;;;;;;;;5033981;28;20032;-71
2020/12/30 13:52:02;;;;;;;3.95;2.40;;;;;;;;;;5033714;28;20026;-68
2020/12/30 13:54:29;;;;;;;5.97;2.65;;;;;;;;;;5033892;28;20513;-73
2020/12/30 13:56:55;;;;;;;15.50;2.80;;;;;;;;;;5033794;28;20390;-71
2020/12/30 13:59:21;;;;;;;6.80;2.53;;;;;;;;;;5034180;28;20040;-72
2020/12/30 14:01:53;;;;;;;6.70;3.08;;;;;;;;;;5032224;28;20478;-73
2020/12/30 14:04:19;;;;;;;;;;;;;;;;;;5033660;28;20029;-71
2020/12/30 14:06:45;;;;;;;3.67;2.20;;;;;;;;;;5033601;28;19966;-72
2020/12/30 14:09:11;;;;;;;2.80;1.63;;;;;;;;;;5033581;28;20082;-73
2020/12/30 14:11:37;;;;;;;7.93;4.63;;;;;;;;;;5033634;28;20512;-73
2020/12/30 14:14:03;;;;;;;8.88;3.97;;;;;;;;;;5033500;28;20053;-72
2020/12/30 14:16:29;;;;;;;3.45;2.25;;;;;;;;;;5033513;28;20532;-73
2020/12/30 14:18:55;;;;;;;6.32;3.08;;;;;;;;;;5032733;28;20075;-71
2020/12/30 14:21:22;;;;;;;9.55;5.47;;;;;;;;;;5033542;28;20017;-72
2020/12/30 14:23:48;;;;;;;7.97;4.35;;;;;;;;;;5034179;28;20095;-73
2020/12/30 14:26:21;;;;;;;21.05;9.60;;;;;;;;;;5033409;28;20033;-72
2020/12/30 14:28:47;;;;;;;17.98;8.02;;;;;;;;;;5033409;28;20049;-72
2020/12/30 14:31:14;;;;;;;17.63;8.82;;;;;;;;;;5033307;28;20036;-72
2020/12/30 14:33:40;;;;;;;14.35;7.50;;;;;;;;;;5031644;28;20025;-70
2020/12/30 14:36:07;;;;;;;16.75;8.95;;;;;;;;;;5033304;28;20025;-71
2020/12/30 14:38:33;;;;;;;30.20;11.15;;;;;;;;;;5033259;28;20052;-71
2020/12/30 14:40:59;;;;;;;23.83;10.75;;;;;;;;;;5033389;28;20071;-71
2020/12/30 14:43:25;;;;;;;15.60;8.38;;;;;;;;;;5032969;28;20049;-71